sensor_id;sensor_type;location;lat;lon;timestamp;P1;durP1;ratioP1;P2;durP2;ratioP2
71639;SDS011;60912;48.968;10.124;2023-10-13T00:01:22;11.45;;;6.35;;
71639;SDS011;60912;48.968;10.124;2023-10-13T00:03:48;12.53;;;6.30;;
71639;SDS011;60912;48.968;10.124;2023-10-13T00:06:13;11.95;;;6.50;;
71639;SDS011;60912;48.968;10.124;2023-10-13T00:08:38;12.93;;;6.40;;
71639;SDS011;60912;48.968;10.124;2023-10-13T00:11:05;10.87;;;6.23;;
71639;SDS011;60912;48.968;10.124;2023-10-13T00:13:30;11.45;;;6.18;;
71639;SDS011;60912;48.968;10.124;2023-10-13T00:16:07;15.07;;;6.55;;
71639;SDS011;60912;48.968;10.124;2023-10-13T00:18:35;11.57;;;6.38;;
71639;SDS011;60912;48.968;10.124;2023-10-13T00:21:07;14.35;;;6.60;;
71639;SDS011;60912;48.968;10.124;2023-10-13T00:23:39;12.03;;;6.80;;
71639;SDS011;60912;48.968;10.124;2023-10-13T00:26:25;10.63;;;6.18;;
71639;SDS011;60912;48.968;10.124;2023-10-13T00:28:55;15.15;;;7.10;;
71639;SDS011;60912;48.968;10.124;2023-10-13T00:31:28;11.93;;;6.53;;
71639;SDS011;60912;48.968;10.124;2023-10-13T00:34:01;11.95;;;6.60;;
71639;SDS011;60912;48.968;10.124;2023-10-13T00:36:36;11.30;;;6.60;;
71639;SDS011;60912;48.968;10.124;2023-10-13T00:39:02;10.48;;;6.70;;
71639;SDS011;60912;48.968;10.124;2023-10-13T00:41:31;12.43;;;6.93;;
71639;SDS011;60912;48.968;10.124;2023-10-13T00:44:17;12.00;;;6.33;;
71639;SDS011;60912;48.968;10.124;2023-10-13T00:47:03;14.63;;;6.50;;
71639;SDS011;60912;48.968;10.124;2023-10-13T00:49:32;11.05;;;6.13;;
71639;SDS011;60912;48.968;10.124;2023-10-13T00:52:01;10.98;;;6.50;;
71639;SDS011;60912;48.968;10.124;2023-10-13T00:54:26;11.97;;;6.00;;
71639;SDS011;60912;48.968;10.124;2023-10-13T00:56:52;11.68;;;6.38;;
71639;SDS011;60912;48.968;10.124;2023-10-13T00:59:29;11.73;;;6.53;;
71639;SDS011;60912;48.968;10.124;2023-10-13T01:01:59;12.57;;;6.60;;
71639;SDS011;60912;48.968;10.124;2023-10-13T01:04:44;13.85;;;6.40;;
71639;SDS011;60912;48.968;10.124;2023-10-13T01:07:11;10.25;;;6.28;;
71639;SDS011;60912;48.968;10.124;2023-10-13T01:09:43;11.10;;;6.33;;
71639;SDS011;60912;48.968;10.124;2023-10-13T01:12:09;10.10;;;6.35;;
71639;SDS011;60912;48.968;10.124;2023-10-13T01:14:34;13.97;;;6.50;;
71639;SDS011;60912;48.968;10.124;2023-10-13T01:17:01;11.75;;;6.60;;
71639;SDS011;60912;48.968;10.124;2023-10-13T01:19:27;13.00;;;6.70;;
71639;SDS011;60912;48.968;10.124;2023-10-13T01:21:55;11.93;;;6.77;;
71639;SDS011;60912;48.968;10.124;2023-10-13T01:24:27;12.18;;;6.47;;
71639;SDS011;60912;48.968;10.124;2023-10-13T01:26:56;12.20;;;6.97;;
71639;SDS011;60912;48.968;10.124;2023-10-13T01:29:22;13.35;;;6.80;;
71639;SDS011;60912;48.968;10.124;2023-10-13T01:31:51;10.30;;;6.30;;
71639;SDS011;60912;48.968;10.124;2023-10-13T01:34:18;11.57;;;6.30;;
71639;SDS011;60912;48.968;10.124;2023-10-13T01:36:53;10.20;;;6.13;;
71639;SDS011;60912;48.968;10.124;2023-10-13T01:39:21;10.60;;;6.10;;
71639;SDS011;60912;48.968;10.124;2023-10-13T01:41:51;13.87;;;6.53;;
71639;SDS011;60912;48.968;10.124;2023-10-13T01:44:20;9.55;;;6.10;;
71639;SDS011;60912;48.968;10.124;2023-10-13T01:46:59;12.20;;;6.40;;
71639;SDS011;60912;48.968;10.124;2023-10-13T01:49:31;10.50;;;5.95;;
71639;SDS011;60912;48.968;10.124;2023-10-13T01:52:06;13.25;;;5.47;;
71639;SDS011;60912;48.968;10.124;2023-10-13T01:54:34;10.37;;;5.53;;
71639;SDS011;60912;48.968;10.124;2023-10-13T01:56:59;15.25;;;6.13;;
71639;SDS011;60912;48.968;10.124;2023-10-13T01:59:25;10.50;;;5.70;;
71639;SDS011;60912;48.968;10.124;2023-10-13T02:01:51;10.48;;;5.50;;
71639;SDS011;60912;48.968;10.124;2023-10-13T02:04:20;11.68;;;5.78;;
71639;SDS011;60912;48.968;10.124;2023-10-13T02:06:46;11.57;;;5.67;;
71639;SDS011;60912;48.968;10.124;2023-10-13T02:09:11;10.23;;;5.93;;
71639;SDS011;60912;48.968;10.124;2023-10-13T02:11:38;10.17;;;5.60;;
71639;SDS011;60912;48.968;10.124;2023-10-13T02:14:07;10.77;;;5.83;;
71639;SDS011;60912;48.968;10.124;2023-10-13T02:16:36;10.75;;;5.45;;
71639;SDS011;60912;48.968;10.124;2023-10-13T02:19:01;9.65;;;5.30;;
71639;SDS011;60912;48.968;10.124;2023-10-13T02:21:31;8.55;;;5.78;;
71639;SDS011;60912;48.968;10.124;2023-10-13T02:24:05;10.07;;;5.80;;
71639;SDS011;60912;48.968;10.124;2023-10-13T02:26:37;9.70;;;6.00;;
71639;SDS011;60912;48.968;10.124;2023-10-13T02:29:04;9.43;;;5.25;;
71639;SDS011;60912;48.968;10.124;2023-10-13T02:31:34;10.88;;;5.47;;
71639;SDS011;60912;48.968;10.124;2023-10-13T02:34:00;12.70;;;5.75;;
71639;SDS011;60912;48.968;10.124;2023-10-13T02:36:31;12.63;;;5.83;;
71639;SDS011;60912;48.968;10.124;2023-10-13T02:39:12;13.77;;;6.70;;
71639;SDS011;60912;48.968;10.124;2023-10-13T02:41:38;10.63;;;5.88;;
71639;SDS011;60912;48.968;10.124;2023-10-13T02:44:05;11.70;;;6.13;;
71639;SDS011;60912;48.968;10.124;2023-10-13T02:46:32;9.73;;;5.95;;
71639;SDS011;60912;48.968;10.124;2023-10-13T02:49:01;11.03;;;5.93;;
71639;SDS011;60912;48.968;10.124;2023-10-13T02:51:35;10.43;;;5.80;;
71639;SDS011;60912;48.968;10.124;2023-10-13T02:54:01;11.02;;;5.82;;
71639;SDS011;60912;48.968;10.124;2023-10-13T02:56:35;10.73;;;5.75;;
71639;SDS011;60912;48.968;10.124;2023-10-13T02:59:01;10.90;;;6.07;;
71639;SDS011;60912;48.968;10.124;2023-10-13T03:01:34;11.53;;;6.27;;
71639;SDS011;60912;48.968;10.124;2023-10-13T03:04:02;11.10;;;6.03;;
71639;SDS011;60912;48.968;10.124;2023-10-13T03:06:28;13.23;;;6.20;;
71639;SDS011;60912;48.968;10.124;2023-10-13T03:09:09;13.48;;;5.80;;
71639;SDS011;60912;48.968;10.124;2023-10-13T03:11:47;11.65;;;5.85;;
71639;SDS011;60912;48.968;10.124;2023-10-13T03:14:17;11.40;;;5.77;;
71639;SDS011;60912;48.968;10.124;2023-10-13T03:17:04;11.05;;;6.18;;
71639;SDS011;60912;48.968;10.124;2023-10-13T03:19:34;9.90;;;5.85;;
71639;SDS011;60912;48.968;10.124;2023-10-13T03:22:05;10.93;;;5.65;;
71639;SDS011;60912;48.968;10.124;2023-10-13T03:24:37;11.15;;;6.20;;
71639;SDS011;60912;48.968;10.124;2023-10-13T03:27:10;11.70;;;5.60;;
71639;SDS011;60912;48.968;10.124;2023-10-13T03:29:37;11.55;;;6.38;;
71639;SDS011;60912;48.968;10.124;2023-10-13T03:32:12;10.90;;;6.00;;
71639;SDS011;60912;48.968;10.124;2023-10-13T03:34:38;8.85;;;5.60;;
71639;SDS011;60912;48.968;10.124;2023-10-13T03:37:20;15.40;;;6.13;;
71639;SDS011;60912;48.968;10.124;2023-10-13T03:40:04;13.20;;;5.80;;
71639;SDS011;60912;48.968;10.124;2023-10-13T03:42:32;11.63;;;5.53;;
71639;SDS011;60912;48.968;10.124;2023-10-13T03:44:57;10.73;;;5.90;;
71639;SDS011;60912;48.968;10.124;2023-10-13T03:47:22;13.23;;;5.70;;
71639;SDS011;60912;48.968;10.124;2023-10-13T03:49:57;9.63;;;5.53;;
71639;SDS011;60912;48.968;10.124;2023-10-13T03:52:40;10.70;;;5.28;;
71639;SDS011;60912;48.968;10.124;2023-10-13T03:55:06;9.90;;;5.57;;
71639;SDS011;60912;48.968;10.124;2023-10-13T03:57:51;11.23;;;5.53;;
71639;SDS011;60912;48.968;10.124;2023-10-13T04:00:17;13.27;;;5.70;;
71639;SDS011;60912;48.968;10.124;2023-10-13T04:02:50;8.82;;;5.60;;
71639;SDS011;60912;48.968;10.124;2023-10-13T04:05:34;11.53;;;5.53;;
71639;SDS011;60912;48.968;10.124;2023-10-13T04:08:05;8.73;;;5.80;;
71639;SDS011;60912;48.968;10.124;2023-10-13T04:10:51;11.02;;;5.75;;
71639;SDS011;60912;48.968;10.124;2023-10-13T04:13:17;11.18;;;5.68;;
71639;SDS011;60912;48.968;10.124;2023-10-13T04:15:43;10.30;;;5.47;;
71639;SDS011;60912;48.968;10.124;2023-10-13T04:18:28;9.52;;;5.43;;
71639;SDS011;60912;48.968;10.124;2023-10-13T04:21:14;12.52;;;5.90;;
71639;SDS011;60912;48.968;10.124;2023-10-13T04:23:58;10.65;;;5.53;;
71639;SDS011;60912;48.968;10.124;2023-10-13T04:26:42;9.63;;;5.70;;
71639;SDS011;60912;48.968;10.124;2023-10-13T04:29:27;9.73;;;6.03;;
71639;SDS011;60912;48.968;10.124;2023-10-13T04:32:11;14.55;;;5.60;;
71639;SDS011;60912;48.968;10.124;2023-10-13T04:34:41;10.15;;;5.38;;
71639;SDS011;60912;48.968;10.124;2023-10-13T04:37:13;10.82;;;6.38;;
71639;SDS011;60912;48.968;10.124;2023-10-13T04:39:54;11.25;;;5.72;;
71639;SDS011;60912;48.968;10.124;2023-10-13T04:42:35;12.63;;;5.67;;
71639;SDS011;60912;48.968;10.124;2023-10-13T04:45:18;8.05;;;5.32;;
71639;SDS011;60912;48.968;10.124;2023-10-13T04:47:57;9.98;;;5.97;;
71639;SDS011;60912;48.968;10.124;2023-10-13T04:50:43;11.68;;;6.05;;
71639;SDS011;60912;48.968;10.124;2023-10-13T04:55:57;9.77;;;5.70;;
71639;SDS011;60912;48.968;10.124;2023-10-13T04:58:28;10.55;;;6.07;;
71639;SDS011;60912;48.968;10.124;2023-10-13T05:01:00;10.05;;;5.95;;
71639;SDS011;60912;48.968;10.124;2023-10-13T05:03:45;10.95;;;5.95;;
71639;SDS011;60912;48.968;10.124;2023-10-13T05:06:29;13.57;;;5.70;;
71639;SDS011;60912;48.968;10.124;2023-10-13T05:09:07;10.40;;;5.57;;
71639;SDS011;60912;48.968;10.124;2023-10-13T05:11:51;11.77;;;5.35;;
71639;SDS011;60912;48.968;10.124;2023-10-13T05:14:35;11.60;;;5.47;;
71639;SDS011;60912;48.968;10.124;2023-10-13T05:17:19;9.57;;;5.70;;
71639;SDS011;60912;48.968;10.124;2023-10-13T05:20:03;12.48;;;5.97;;
71639;SDS011;60912;48.968;10.124;2023-10-13T05:22:48;10.93;;;5.70;;
71639;SDS011;60912;48.968;10.124;2023-10-13T05:25:35;10.32;;;5.82;;
71639;SDS011;60912;48.968;10.124;2023-10-13T05:28:20;10.40;;;6.07;;
71639;SDS011;60912;48.968;10.124;2023-10-13T05:31:04;10.52;;;5.60;;
71639;SDS011;60912;48.968;10.124;2023-10-13T05:33:48;12.32;;;5.78;;
71639;SDS011;60912;48.968;10.124;2023-10-13T05:36:36;12.03;;;5.97;;
71639;SDS011;60912;48.968;10.124;2023-10-13T05:39:21;11.35;;;5.93;;
71639;SDS011;60912;48.968;10.124;2023-10-13T05:42:05;13.02;;;6.32;;
71639;SDS011;60912;48.968;10.124;2023-10-13T05:44:49;10.63;;;5.63;;
71639;SDS011;60912;48.968;10.124;2023-10-13T05:47:34;9.07;;;5.13;;
71639;SDS011;60912;48.968;10.124;2023-10-13T05:50:09;8.80;;;5.47;;
71639;SDS011;60912;48.968;10.124;2023-10-13T05:52:43;8.73;;;5.35;;
71639;SDS011;60912;48.968;10.124;2023-10-13T05:55:26;10.70;;;4.90;;
71639;SDS011;60912;48.968;10.124;2023-10-13T05:58:11;8.98;;;5.18;;
71639;SDS011;60912;48.968;10.124;2023-10-13T06:00:55;9.25;;;5.22;;
71639;SDS011;60912;48.968;10.124;2023-10-13T06:03:40;13.43;;;5.47;;
71639;SDS011;60912;48.968;10.124;2023-10-13T06:06:24;12.43;;;5.50;;
71639;SDS011;60912;48.968;10.124;2023-10-13T06:09:08;10.80;;;5.43;;
71639;SDS011;60912;48.968;10.124;2023-10-13T06:11:52;10.82;;;4.95;;
71639;SDS011;60912;48.968;10.124;2023-10-13T06:14:36;9.18;;;4.93;;
71639;SDS011;60912;48.968;10.124;2023-10-13T06:17:20;12.37;;;4.90;;
71639;SDS011;60912;48.968;10.124;2023-10-13T06:20:04;11.57;;;5.13;;
71639;SDS011;60912;48.968;10.124;2023-10-13T06:22:49;10.27;;;4.78;;
71639;SDS011;60912;48.968;10.124;2023-10-13T06:25:33;8.50;;;4.55;;
71639;SDS011;60912;48.968;10.124;2023-10-13T06:28:17;7.93;;;4.53;;
71639;SDS011;60912;48.968;10.124;2023-10-13T06:31:01;9.70;;;4.20;;
71639;SDS011;60912;48.968;10.124;2023-10-13T06:33:31;8.85;;;4.50;;
71639;SDS011;60912;48.968;10.124;2023-10-13T06:36:03;8.98;;;4.78;;
71639;SDS011;60912;48.968;10.124;2023-10-13T06:38:34;10.07;;;4.60;;
71639;SDS011;60912;48.968;10.124;2023-10-13T06:41:06;9.52;;;5.00;;
71639;SDS011;60912;48.968;10.124;2023-10-13T06:43:32;7.30;;;4.47;;
71639;SDS011;60912;48.968;10.124;2023-10-13T06:46:05;8.95;;;4.75;;
71639;SDS011;60912;48.968;10.124;2023-10-13T06:48:32;13.45;;;5.07;;
71639;SDS011;60912;48.968;10.124;2023-10-13T06:50:59;10.07;;;4.65;;
71639;SDS011;60912;48.968;10.124;2023-10-13T06:53:42;6.82;;;3.97;;
71639;SDS011;60912;48.968;10.124;2023-10-13T06:56:11;10.37;;;4.40;;
71639;SDS011;60912;48.968;10.124;2023-10-13T06:58:43;10.70;;;4.50;;
71639;SDS011;60912;48.968;10.124;2023-10-13T07:01:11;11.60;;;4.82;;
71639;SDS011;60912;48.968;10.124;2023-10-13T07:03:44;8.88;;;4.40;;
71639;SDS011;60912;48.968;10.124;2023-10-13T07:06:17;12.23;;;5.10;;
71639;SDS011;60912;48.968;10.124;2023-10-13T07:08:45;13.97;;;4.93;;
71639;SDS011;60912;48.968;10.124;2023-10-13T07:11:16;10.25;;;5.00;;
71639;SDS011;60912;48.968;10.124;2023-10-13T07:14:07;12.10;;;5.00;;
71639;SDS011;60912;48.968;10.124;2023-10-13T07:19:11;10.82;;;4.95;;
71639;SDS011;60912;48.968;10.124;2023-10-13T07:21:42;10.20;;;4.40;;
71639;SDS011;60912;48.968;10.124;2023-10-13T07:24:10;10.27;;;4.70;;
71639;SDS011;60912;48.968;10.124;2023-10-13T07:26:36;13.95;;;5.40;;
71639;SDS011;60912;48.968;10.124;2023-10-13T07:29:08;17.17;;;6.32;;
71639;SDS011;60912;48.968;10.124;2023-10-13T07:31:34;9.65;;;5.05;;
71639;SDS011;60912;48.968;10.124;2023-10-13T07:33:59;17.60;;;5.83;;
71639;SDS011;60912;48.968;10.124;2023-10-13T07:36:35;13.10;;;5.05;;
71639;SDS011;60912;48.968;10.124;2023-10-13T07:39:04;12.17;;;5.10;;
71639;SDS011;60912;48.968;10.124;2023-10-13T07:41:48;9.00;;;5.15;;
71639;SDS011;60912;48.968;10.124;2023-10-13T07:44:19;15.18;;;6.78;;
71639;SDS011;60912;48.968;10.124;2023-10-13T07:46:50;11.18;;;5.07;;
71639;SDS011;60912;48.968;10.124;2023-10-13T07:49:23;9.85;;;4.95;;
71639;SDS011;60912;48.968;10.124;2023-10-13T07:51:55;12.17;;;4.90;;
71639;SDS011;60912;48.968;10.124;2023-10-13T07:54:25;12.32;;;4.80;;
71639;SDS011;60912;48.968;10.124;2023-10-13T07:56:51;11.32;;;4.70;;
71639;SDS011;60912;48.968;10.124;2023-10-13T07:59:18;11.57;;;5.40;;
71639;SDS011;60912;48.968;10.124;2023-10-13T08:01:47;16.60;;;5.35;;
71639;SDS011;60912;48.968;10.124;2023-10-13T08:04:21;16.53;;;6.00;;
71639;SDS011;60912;48.968;10.124;2023-10-13T08:06:53;12.52;;;5.00;;
71639;SDS011;60912;48.968;10.124;2023-10-13T08:09:27;13.30;;;5.30;;
71639;SDS011;60912;48.968;10.124;2023-10-13T08:11:56;15.02;;;4.97;;
71639;SDS011;60912;48.968;10.124;2023-10-13T08:14:21;8.65;;;4.75;;
71639;SDS011;60912;48.968;10.124;2023-10-13T08:16:54;13.13;;;5.20;;
71639;SDS011;60912;48.968;10.124;2023-10-13T08:19:25;14.18;;;5.30;;
71639;SDS011;60912;48.968;10.124;2023-10-13T08:22:10;15.43;;;5.10;;
71639;SDS011;60912;48.968;10.124;2023-10-13T08:24:45;14.52;;;4.40;;
71639;SDS011;60912;48.968;10.124;2023-10-13T08:27:12;8.10;;;4.25;;
71639;SDS011;60912;48.968;10.124;2023-10-13T08:32:22;13.48;;;4.50;;
71639;SDS011;60912;48.968;10.124;2023-10-13T08:34:58;12.43;;;4.32;;
71639;SDS011;60912;48.968;10.124;2023-10-13T08:37:35;9.88;;;3.90;;
71639;SDS011;60912;48.968;10.124;2023-10-13T08:40:26;10.35;;;3.70;;
71639;SDS011;60912;48.968;10.124;2023-10-13T08:43:11;13.63;;;3.80;;
71639;SDS011;60912;48.968;10.124;2023-10-13T08:45:42;11.93;;;3.80;;
71639;SDS011;60912;48.968;10.124;2023-10-13T08:48:09;8.75;;;3.50;;
71639;SDS011;60912;48.968;10.124;2023-10-13T08:50:36;11.32;;;3.80;;
71639;SDS011;60912;48.968;10.124;2023-10-13T08:58:30;15.50;;;3.72;;
71639;SDS011;60912;48.968;10.124;2023-10-13T09:01:14;12.52;;;3.28;;
71639;SDS011;60912;48.968;10.124;2023-10-13T09:04:00;9.93;;;3.38;;
71639;SDS011;60912;48.968;10.124;2023-10-13T09:09:23;11.50;;;3.73;;
71639;SDS011;60912;48.968;10.124;2023-10-13T09:12:10;9.77;;;3.00;;
71639;SDS011;60912;48.968;10.124;2023-10-13T09:14:40;7.40;;;3.00;;
71639;SDS011;60912;48.968;10.124;2023-10-13T09:17:10;9.15;;;2.88;;
71639;SDS011;60912;48.968;10.124;2023-10-13T09:19:47;7.25;;;2.95;;
71639;SDS011;60912;48.968;10.124;2023-10-13T09:22:20;12.03;;;3.10;;
71639;SDS011;60912;48.968;10.124;2023-10-13T09:24:58;7.55;;;2.92;;
71639;SDS011;60912;48.968;10.124;2023-10-13T09:27:29;10.45;;;3.10;;
71639;SDS011;60912;48.968;10.124;2023-10-13T09:30:00;11.73;;;3.30;;
71639;SDS011;60912;48.968;10.124;2023-10-13T09:32:43;11.52;;;3.30;;
71639;SDS011;60912;48.968;10.124;2023-10-13T09:35:18;8.93;;;3.10;;
71639;SDS011;60912;48.968;10.124;2023-10-13T09:37:48;8.85;;;2.90;;
71639;SDS011;60912;48.968;10.124;2023-10-13T09:40:15;9.85;;;3.25;;
71639;SDS011;60912;48.968;10.124;2023-10-13T09:42:52;14.43;;;3.30;;
71639;SDS011;60912;48.968;10.124;2023-10-13T09:45:22;9.75;;;3.13;;
71639;SDS011;60912;48.968;10.124;2023-10-13T09:47:52;10.03;;;2.70;;
71639;SDS011;60912;48.968;10.124;2023-10-13T09:50:23;10.82;;;3.35;;
71639;SDS011;60912;48.968;10.124;2023-10-13T09:52:52;11.68;;;2.90;;
71639;SDS011;60912;48.968;10.124;2023-10-13T09:55:33;8.50;;;2.97;;
71639;SDS011;60912;48.968;10.124;2023-10-13T09:58:05;10.20;;;2.58;;
71639;SDS011;60912;48.968;10.124;2023-10-13T10:00:36;8.53;;;2.77;;
71639;SDS011;60912;48.968;10.124;2023-10-13T10:03:45;8.18;;;2.40;;
71639;SDS011;60912;48.968;10.124;2023-10-13T10:06:31;7.57;;;2.75;;
71639;SDS011;60912;48.968;10.124;2023-10-13T10:09:07;10.10;;;2.50;;
71639;SDS011;60912;48.968;10.124;2023-10-13T10:14:24;8.83;;;2.70;;
71639;SDS011;60912;48.968;10.124;2023-10-13T10:17:07;11.20;;;2.80;;
71639;SDS011;60912;48.968;10.124;2023-10-13T10:19:33;10.82;;;2.42;;
71639;SDS011;60912;48.968;10.124;2023-10-13T10:22:13;8.32;;;2.50;;
71639;SDS011;60912;48.968;10.124;2023-10-13T10:24:55;8.43;;;2.42;;
71639;SDS011;60912;48.968;10.124;2023-10-13T10:27:28;9.00;;;2.83;;
71639;SDS011;60912;48.968;10.124;2023-10-13T10:29:56;9.50;;;2.97;;
71639;SDS011;60912;48.968;10.124;2023-10-13T10:32:31;9.85;;;2.20;;
71639;SDS011;60912;48.968;10.124;2023-10-13T10:35:07;10.55;;;2.75;;
71639;SDS011;60912;48.968;10.124;2023-10-13T10:37:40;8.70;;;2.70;;
71639;SDS011;60912;48.968;10.124;2023-10-13T10:40:12;7.30;;;2.50;;
71639;SDS011;60912;48.968;10.124;2023-10-13T10:42:58;9.50;;;2.50;;
71639;SDS011;60912;48.968;10.124;2023-10-13T10:45:26;7.53;;;2.53;;
71639;SDS011;60912;48.968;10.124;2023-10-13T10:47:57;7.07;;;2.60;;
71639;SDS011;60912;48.968;10.124;2023-10-13T10:50:26;7.10;;;2.40;;
71639;SDS011;60912;48.968;10.124;2023-10-13T10:53:03;7.20;;;2.50;;
71639;SDS011;60912;48.968;10.124;2023-10-13T10:55:34;8.30;;;2.78;;
71639;SDS011;60912;48.968;10.124;2023-10-13T10:58:03;4.82;;;2.20;;
71639;SDS011;60912;48.968;10.124;2023-10-13T11:03:35;9.15;;;2.55;;
71639;SDS011;60912;48.968;10.124;2023-10-13T11:06:03;8.93;;;2.07;;
71639;SDS011;60912;48.968;10.124;2023-10-13T11:08:33;6.57;;;2.45;;
71639;SDS011;60912;48.968;10.124;2023-10-13T11:11:02;6.97;;;2.40;;
71639;SDS011;60912;48.968;10.124;2023-10-13T11:13:44;6.30;;;2.70;;
71639;SDS011;60912;48.968;10.124;2023-10-13T11:16:22;7.45;;;2.38;;
71639;SDS011;60912;48.968;10.124;2023-10-13T11:19:04;8.27;;;2.63;;
71639;SDS011;60912;48.968;10.124;2023-10-13T11:21:32;9.02;;;2.47;;
71639;SDS011;60912;48.968;10.124;2023-10-13T11:23:58;6.03;;;2.30;;
71639;SDS011;60912;48.968;10.124;2023-10-13T11:26:36;7.93;;;2.47;;
71639;SDS011;60912;48.968;10.124;2023-10-13T11:29:14;11.93;;;2.60;;
71639;SDS011;60912;48.968;10.124;2023-10-13T11:31:46;5.80;;;2.35;;
71639;SDS011;60912;48.968;10.124;2023-10-13T11:34:21;8.20;;;2.38;;
71639;SDS011;60912;48.968;10.124;2023-10-13T11:36:46;7.80;;;2.40;;
71639;SDS011;60912;48.968;10.124;2023-10-13T11:39:18;6.00;;;2.60;;
71639;SDS011;60912;48.968;10.124;2023-10-13T11:42:10;8.80;;;2.30;;
71639;SDS011;60912;48.968;10.124;2023-10-13T11:44:36;6.47;;;2.57;;
71639;SDS011;60912;48.968;10.124;2023-10-13T11:47:08;11.82;;;2.40;;
71639;SDS011;60912;48.968;10.124;2023-10-13T11:49:55;6.95;;;2.45;;
71639;SDS011;60912;48.968;10.124;2023-10-13T11:52:23;8.43;;;2.60;;
71639;SDS011;60912;48.968;10.124;2023-10-13T11:54:51;7.70;;;2.30;;
71639;SDS011;60912;48.968;10.124;2023-10-13T11:57:16;9.20;;;2.50;;
71639;SDS011;60912;48.968;10.124;2023-10-13T11:59:44;7.93;;;2.30;;
71639;SDS011;60912;48.968;10.124;2023-10-13T12:02:17;7.05;;;2.60;;
71639;SDS011;60912;48.968;10.124;2023-10-13T12:04:52;14.18;;;2.63;;
71639;SDS011;60912;48.968;10.124;2023-10-13T12:07:19;8.57;;;2.10;;
71639;SDS011;60912;48.968;10.124;2023-10-13T12:10:07;7.90;;;2.70;;
71639;SDS011;60912;48.968;10.124;2023-10-13T12:12:40;8.07;;;3.10;;
71639;SDS011;60912;48.968;10.124;2023-10-13T12:15:08;6.05;;;2.80;;
71639;SDS011;60912;48.968;10.124;2023-10-13T12:17:34;7.60;;;2.30;;
71639;SDS011;60912;48.968;10.124;2023-10-13T12:20:01;8.65;;;2.75;;
71639;SDS011;60912;48.968;10.124;2023-10-13T12:22:30;8.85;;;2.53;;
71639;SDS011;60912;48.968;10.124;2023-10-13T12:25:04;8.17;;;2.50;;
71639;SDS011;60912;48.968;10.124;2023-10-13T12:27:43;10.38;;;3.13;;
71639;SDS011;60912;48.968;10.124;2023-10-13T12:30:13;8.68;;;2.22;;
71639;SDS011;60912;48.968;10.124;2023-10-13T12:32:41;8.32;;;2.50;;
71639;SDS011;60912;48.968;10.124;2023-10-13T12:35:23;8.70;;;2.55;;
71639;SDS011;60912;48.968;10.124;2023-10-13T12:37:55;9.10;;;2.70;;
71639;SDS011;60912;48.968;10.124;2023-10-13T12:40:29;10.18;;;3.00;;
71639;SDS011;60912;48.968;10.124;2023-10-13T12:43:14;7.22;;;2.70;;
71639;SDS011;60912;48.968;10.124;2023-10-13T12:45:57;9.30;;;2.58;;
71639;SDS011;60912;48.968;10.124;2023-10-13T12:48:42;7.07;;;2.50;;
71639;SDS011;60912;48.968;10.124;2023-10-13T12:51:26;8.97;;;2.63;;
71639;SDS011;60912;48.968;10.124;2023-10-13T12:53:57;6.45;;;2.20;;
71639;SDS011;60912;48.968;10.124;2023-10-13T12:56:48;6.00;;;2.05;;
71639;SDS011;60912;48.968;10.124;2023-10-13T12:59:13;8.87;;;2.80;;
71639;SDS011;60912;48.968;10.124;2023-10-13T13:01:39;7.80;;;2.40;;
71639;SDS011;60912;48.968;10.124;2023-10-13T13:04:08;8.25;;;2.40;;
71639;SDS011;60912;48.968;10.124;2023-10-13T13:06:38;6.18;;;2.28;;
71639;SDS011;60912;48.968;10.124;2023-10-13T13:09:05;8.88;;;2.60;;
71639;SDS011;60912;48.968;10.124;2023-10-13T13:11:34;9.50;;;2.67;;
71639;SDS011;60912;48.968;10.124;2023-10-13T13:14:04;11.05;;;2.92;;
71639;SDS011;60912;48.968;10.124;2023-10-13T13:16:32;5.82;;;2.60;;
71639;SDS011;60912;48.968;10.124;2023-10-13T13:18:58;7.63;;;2.42;;
71639;SDS011;60912;48.968;10.124;2023-10-13T13:21:23;11.20;;;2.77;;
71639;SDS011;60912;48.968;10.124;2023-10-13T13:23:52;9.03;;;2.60;;
71639;SDS011;60912;48.968;10.124;2023-10-13T13:26:23;8.52;;;2.55;;
71639;SDS011;60912;48.968;10.124;2023-10-13T13:28:48;6.28;;;2.30;;
71639;SDS011;60912;48.968;10.124;2023-10-13T13:31:19;7.73;;;2.50;;
71639;SDS011;60912;48.968;10.124;2023-10-13T13:33:54;10.55;;;2.65;;
71639;SDS011;60912;48.968;10.124;2023-10-13T13:36:20;6.47;;;2.33;;
71639;SDS011;60912;48.968;10.124;2023-10-13T13:38:47;8.73;;;2.50;;
71639;SDS011;60912;48.968;10.124;2023-10-13T13:41:16;6.72;;;2.53;;
71639;SDS011;60912;48.968;10.124;2023-10-13T13:43:46;11.63;;;2.93;;
71639;SDS011;60912;48.968;10.124;2023-10-13T13:46:18;10.68;;;2.90;;
71639;SDS011;60912;48.968;10.124;2023-10-13T13:48:52;7.75;;;2.58;;
71639;SDS011;60912;48.968;10.124;2023-10-13T13:51:24;11.75;;;2.72;;
71639;SDS011;60912;48.968;10.124;2023-10-13T13:53:53;9.52;;;2.47;;
71639;SDS011;60912;48.968;10.124;2023-10-13T13:56:20;9.33;;;2.50;;
71639;SDS011;60912;48.968;10.124;2023-10-13T13:58:46;7.03;;;2.53;;
71639;SDS011;60912;48.968;10.124;2023-10-13T14:01:12;6.00;;;2.60;;
71639;SDS011;60912;48.968;10.124;2023-10-13T14:03:43;8.77;;;2.43;;
71639;SDS011;60912;48.968;10.124;2023-10-13T14:06:15;11.20;;;2.60;;
71639;SDS011;60912;48.968;10.124;2023-10-13T14:08:52;11.50;;;2.67;;
71639;SDS011;60912;48.968;10.124;2023-10-13T14:11:22;6.70;;;2.42;;
71639;SDS011;60912;48.968;10.124;2023-10-13T14:16:41;8.67;;;2.67;;
71639;SDS011;60912;48.968;10.124;2023-10-13T14:19:13;6.47;;;2.63;;
71639;SDS011;60912;48.968;10.124;2023-10-13T14:22:05;7.35;;;2.60;;
71639;SDS011;60912;48.968;10.124;2023-10-13T14:24:37;7.13;;;2.63;;
71639;SDS011;60912;48.968;10.124;2023-10-13T14:27:16;7.50;;;2.45;;
71639;SDS011;60912;48.968;10.124;2023-10-13T14:29:47;11.47;;;2.90;;
71639;SDS011;60912;48.968;10.124;2023-10-13T14:32:17;7.05;;;2.45;;
71639;SDS011;60912;48.968;10.124;2023-10-13T14:34:50;8.20;;;2.55;;
71639;SDS011;60912;48.968;10.124;2023-10-13T14:37:19;9.98;;;2.75;;
71639;SDS011;60912;48.968;10.124;2023-10-13T14:39:52;8.07;;;2.35;;
71639;SDS011;60912;48.968;10.124;2023-10-13T14:42:22;6.70;;;2.20;;
71639;SDS011;60912;48.968;10.124;2023-10-13T14:44:48;9.30;;;2.60;;
71639;SDS011;60912;48.968;10.124;2023-10-13T14:47:20;7.60;;;2.47;;
71639;SDS011;60912;48.968;10.124;2023-10-13T14:49:53;7.15;;;2.35;;
71639;SDS011;60912;48.968;10.124;2023-10-13T14:52:26;8.43;;;2.30;;
71639;SDS011;60912;48.968;10.124;2023-10-13T14:54:55;7.87;;;2.43;;
71639;SDS011;60912;48.968;10.124;2023-10-13T14:57:21;8.75;;;2.35;;
71639;SDS011;60912;48.968;10.124;2023-10-13T14:59:52;6.77;;;2.50;;
71639;SDS011;60912;48.968;10.124;2023-10-13T15:02:18;9.23;;;2.70;;
71639;SDS011;60912;48.968;10.124;2023-10-13T15:04:44;6.43;;;2.38;;
71639;SDS011;60912;48.968;10.124;2023-10-13T15:07:13;5.10;;;2.25;;
71639;SDS011;60912;48.968;10.124;2023-10-13T15:09:40;5.90;;;2.30;;
71639;SDS011;60912;48.968;10.124;2023-10-13T15:12:07;7.73;;;2.67;;
71639;SDS011;60912;48.968;10.124;2023-10-13T15:14:35;9.57;;;2.50;;
71639;SDS011;60912;48.968;10.124;2023-10-13T15:17:04;7.95;;;2.65;;
71639;SDS011;60912;48.968;10.124;2023-10-13T15:19:31;12.23;;;2.38;;
71639;SDS011;60912;48.968;10.124;2023-10-13T15:22:01;8.18;;;2.47;;
71639;SDS011;60912;48.968;10.124;2023-10-13T15:24:27;6.10;;;2.33;;
71639;SDS011;60912;48.968;10.124;2023-10-13T15:26:53;11.35;;;2.40;;
71639;SDS011;60912;48.968;10.124;2023-10-13T15:29:26;8.40;;;2.57;;